EDMA/AGB METAR and TAF weather

Enter ICAO airport designator
Station Type Date Time Source
EDMA METAR 2019/08/19 22:20 UTC NOAA

EDMA 192220Z AUTO 17003KT 9999 // FEW046/// SCT055/// OVC110/// 17/16 Q1021


Station Type Date Time Source
EDMA Decoded METAR 2019/08/19 22:20 UTC NOAA

Augsburg, Germany (EDMA) 48-26N 010-56E 463M
Aug 19, 2019 - 06:20 PM EDT / 2019.08.19 2220 UTC
Wind: from the S (170 degrees) at 3 MPH (3 KT):0
Visibility: greater than 7 mile(s):0
Sky conditions: overcast
Temperature: 62 F (17 C)
Dew Point: 60 F (16 C)
Relative Humidity: 93%
Pressure (altimeter): 30.15 in. Hg (1021 hPa)
ob: EDMA 192220Z AUTO 17003KT 9999 // FEW046/// SCT055/// OVC110/// 17/16 Q1021
cycle: 22

Station Type Date Time Source
EDMA TAF 2010/02/22 13:50 UTC NOAA

METAR EDMA 221350Z 23006KT CAVOK 10/02 Q0996

Example: see airport list